createdAt,value
2022-10-14T00:01:59.991Z,17.12
2022-10-14T00:04:26.706Z,16.97
2022-10-14T00:06:53.420Z,16.96
2022-10-14T00:09:19.979Z,16.97
2022-10-14T00:11:46.529Z,16.90
2022-10-14T00:14:16.960Z,16.98
2022-10-14T00:16:47.547Z,16.68
2022-10-14T00:19:15.110Z,16.97
2022-10-14T00:21:44.942Z,16.93
2022-10-14T00:24:13.146Z,16.95
2022-10-14T00:26:40.392Z,16.51
2022-10-14T00:29:12.625Z,16.81
2022-10-14T00:31:39.446Z,16.90
2022-10-14T00:34:06.223Z,16.45
2022-10-14T00:36:32.959Z,16.80
2022-10-14T00:38:59.716Z,16.49
2022-10-14T00:41:33.114Z,16.79
2022-10-14T00:44:08.823Z,16.81
2022-10-14T00:46:41.018Z,16.86
2022-10-14T00:49:19.161Z,16.70
2022-10-14T00:51:52.506Z,16.73
2022-10-14T00:54:23.082Z,16.84
2022-10-14T00:56:50.750Z,16.78
2022-10-14T00:59:17.716Z,16.75
2022-10-14T01:01:45.291Z,16.69
2022-10-14T01:04:11.860Z,16.80
2022-10-14T01:07:05.881Z,16.67
2022-10-14T01:10:09.252Z,16.64
2022-10-14T01:12:52.612Z,16.81
2022-10-14T01:15:31.527Z,16.75
2022-10-14T01:18:07.771Z,16.75
2022-10-14T01:20:59.579Z,16.75
2022-10-14T01:23:56.524Z,16.60
2022-10-14T01:26:42.013Z,16.79
2022-10-14T01:29:44.756Z,16.76
2022-10-14T01:32:27.006Z,16.74
2022-10-14T01:35:01.333Z,16.76
2022-10-14T01:37:30.730Z,16.68
2022-10-14T01:40:14.936Z,16.42
2022-10-14T01:42:43.301Z,16.48
2022-10-14T01:45:22.432Z,16.25
2022-10-14T01:47:51.472Z,16.43
2022-10-14T01:50:22.668Z,16.42
2022-10-14T01:53:19.075Z,16.00
2022-10-14T01:55:47.963Z,16.20
2022-10-14T01:58:17.104Z,16.21
2022-10-14T02:00:44.111Z,16.40
2022-10-14T02:03:13.394Z,16.23
2022-10-14T02:06:08.977Z,16.18
2022-10-14T02:09:01.690Z,16.30
2022-10-14T02:11:36.442Z,16.24
2022-10-14T02:14:56.604Z,16.22
2022-10-14T02:17:36.006Z,16.08
2022-10-14T02:20:24.466Z,16.18
2022-10-14T02:22:58.203Z,16.02
2022-10-14T02:25:33.745Z,15.79
2022-10-14T02:28:03.144Z,16.00
2022-10-14T02:30:35.209Z,15.88
2022-10-14T02:33:02.660Z,15.89
2022-10-14T02:35:31.583Z,16.01
2022-10-14T02:37:59.167Z,15.98
2022-10-14T02:40:33.425Z,16.11
2022-10-14T02:43:00.168Z,15.94
2022-10-14T02:45:27.420Z,15.96
2022-10-14T02:47:54.667Z,16.03
2022-10-14T02:50:22.042Z,15.83
2022-10-14T02:52:48.792Z,15.97
2022-10-14T02:55:15.417Z,15.49
2022-10-14T02:57:42.228Z,15.93
2022-10-14T03:00:09.917Z,15.72
2022-10-14T03:02:36.803Z,15.78
2022-10-14T03:05:03.779Z,15.65
2022-10-14T03:07:30.855Z,15.64
2022-10-14T03:09:58.379Z,15.96
2022-10-14T03:12:25.809Z,15.93
2022-10-14T03:14:52.614Z,16.01
2022-10-14T03:17:19.412Z,15.94
2022-10-14T03:19:45.997Z,16.05
2022-10-14T03:22:12.946Z,16.09
2022-10-14T03:24:42.705Z,16.04
2022-10-14T03:27:09.357Z,15.87
2022-10-14T03:29:35.809Z,16.00
2022-10-14T03:32:02.475Z,16.13
2022-10-14T03:34:29.058Z,16.09
2022-10-14T03:36:55.750Z,15.90
2022-10-14T03:39:22.363Z,16.10
2022-10-14T03:41:49.045Z,15.93
2022-10-14T03:44:15.681Z,15.88
2022-10-14T03:46:42.246Z,16.03
2022-10-14T03:49:09.200Z,16.00
2022-10-14T03:51:36.055Z,15.97
2022-10-14T03:54:02.674Z,15.81
2022-10-14T03:56:29.311Z,15.72
2022-10-14T03:58:55.958Z,15.77
2022-10-14T04:01:22.667Z,15.73
2022-10-14T04:03:51.352Z,15.87
2022-10-14T04:06:17.846Z,15.87
2022-10-14T04:08:44.673Z,15.88
2022-10-14T04:11:11.384Z,15.90
2022-10-14T04:13:38.207Z,15.91
2022-10-14T04:16:10.418Z,15.75
2022-10-14T04:18:38.061Z,15.91
2022-10-14T04:21:11.207Z,15.36
2022-10-14T04:23:38.317Z,15.94
2022-10-14T04:26:06.724Z,15.94
2022-10-14T04:28:34.461Z,15.70
2022-10-14T04:31:01.165Z,15.86
2022-10-14T04:33:28.325Z,15.77
2022-10-14T04:36:03.488Z,15.71
2022-10-14T04:38:30.115Z,15.62
2022-10-14T04:40:57.197Z,14.30
2022-10-14T04:43:23.808Z,15.51
2022-10-14T04:45:50.650Z,15.56
2022-10-14T04:48:18.268Z,15.49
2022-10-14T04:50:45.971Z,15.59
2022-10-14T04:53:14.023Z,15.59
2022-10-14T04:55:41.454Z,15.60
2022-10-14T04:58:08.336Z,15.64
2022-10-14T05:00:35.153Z,15.57
2022-10-14T05:03:01.712Z,15.35
2022-10-14T05:05:28.885Z,15.33
2022-10-14T05:07:55.806Z,15.28
2022-10-14T05:10:22.467Z,15.26
2022-10-14T05:12:49.747Z,15.35
2022-10-14T05:15:17.098Z,15.17
2022-10-14T05:17:44.846Z,15.36
2022-10-14T05:20:12.421Z,15.43
2022-10-14T05:22:39.381Z,15.42
2022-10-14T05:25:06.560Z,15.44
2022-10-14T05:27:33.184Z,15.40
2022-10-14T05:29:59.759Z,15.51
2022-10-14T05:32:26.430Z,15.48
2022-10-14T05:34:53.084Z,15.49
2022-10-14T05:37:19.632Z,15.33
2022-10-14T05:39:46.623Z,15.46
2022-10-14T05:42:13.661Z,15.44
2022-10-14T05:44:40.304Z,15.43
2022-10-14T05:47:06.949Z,15.26
2022-10-14T05:49:33.511Z,15.55
2022-10-14T05:52:00.436Z,15.43
2022-10-14T05:54:26.961Z,15.56
2022-10-14T05:56:53.508Z,15.60
2022-10-14T05:59:20.222Z,15.51
2022-10-14T06:01:46.850Z,15.56
2022-10-14T06:04:20.488Z,15.74
2022-10-14T06:06:47.617Z,15.75
2022-10-14T06:09:14.722Z,15.77
2022-10-14T06:11:43.982Z,15.95
2022-10-14T06:14:10.832Z,15.93
2022-10-14T06:16:37.369Z,15.97
2022-10-14T06:19:04.143Z,15.96
2022-10-14T06:21:30.832Z,15.84
2022-10-14T06:23:57.504Z,16.00
2022-10-14T06:26:24.164Z,15.94
2022-10-14T06:28:51.136Z,16.10
2022-10-14T06:31:18.464Z,16.13
2022-10-14T06:33:45.180Z,16.13
2022-10-14T06:36:12.155Z,16.00
2022-10-14T06:38:38.770Z,16.08
2022-10-14T06:41:05.863Z,16.20
2022-10-14T06:43:32.951Z,15.72
2022-10-14T06:45:59.854Z,16.12
2022-10-14T06:48:26.500Z,16.35
2022-10-14T06:50:53.279Z,16.37
2022-10-14T06:53:19.995Z,16.43
2022-10-14T06:55:47.623Z,16.20
2022-10-14T06:58:14.313Z,16.18
2022-10-14T07:00:44.385Z,16.41
2022-10-14T07:03:13.851Z,16.63
2022-10-14T07:05:40.399Z,16.64
2022-10-14T07:08:08.115Z,16.60
2022-10-14T07:10:36.772Z,16.69
2022-10-14T07:13:03.374Z,16.68
2022-10-14T07:15:33.814Z,16.71
2022-10-14T07:18:04.182Z,16.82
2022-10-14T07:20:30.714Z,16.74
2022-10-14T07:22:57.522Z,16.94
2022-10-14T07:25:24.732Z,16.99
2022-10-14T07:27:53.277Z,17.05
2022-10-14T07:30:20.508Z,16.99
2022-10-14T07:32:47.905Z,16.96
2022-10-14T07:35:14.491Z,16.95
2022-10-14T07:37:41.224Z,16.92
2022-10-14T07:40:08.529Z,17.24
2022-10-14T07:42:35.276Z,17.40
2022-10-14T07:45:01.871Z,17.47
2022-10-14T07:47:29.519Z,17.49
2022-10-14T07:49:56.077Z,17.45
2022-10-14T07:52:23.055Z,17.62
2022-10-14T07:54:50.938Z,17.65
2022-10-14T07:57:19.636Z,17.73
2022-10-14T07:59:46.845Z,17.88
2022-10-14T08:02:13.643Z,17.83
2022-10-14T08:04:40.500Z,17.92
2022-10-14T08:07:07.149Z,17.90
2022-10-14T08:09:36.631Z,18.04
2022-10-14T08:12:03.392Z,18.07
2022-10-14T08:14:30.121Z,18.07
2022-10-14T08:16:57.031Z,18.07
2022-10-14T08:19:24.318Z,18.09
2022-10-14T08:21:50.802Z,18.22
2022-10-14T08:24:17.354Z,18.32
2022-10-14T08:26:58.084Z,18.40
2022-10-14T08:29:25.617Z,18.48
2022-10-14T08:31:52.688Z,18.56
2022-10-14T08:34:24.263Z,18.69
2022-10-14T08:36:51.866Z,18.77
2022-10-14T08:39:22.142Z,18.76
2022-10-14T08:42:11.294Z,18.84
2022-10-14T08:44:51.748Z,18.92
2022-10-14T08:47:24.157Z,19.08
2022-10-14T08:49:59.336Z,19.09
2022-10-14T08:52:34.995Z,19.11
2022-10-14T08:55:28.217Z,19.12
2022-10-14T08:58:02.527Z,19.42
2022-10-14T09:00:31.401Z,19.49
2022-10-14T09:02:59.979Z,19.61
2022-10-14T09:05:27.630Z,19.68
2022-10-14T09:07:57.409Z,19.77
2022-10-14T09:10:28.910Z,19.82
2022-10-14T09:12:58.918Z,19.87
2022-10-14T09:15:37.088Z,19.79
2022-10-14T09:18:27.007Z,19.94
2022-10-14T09:20:55.346Z,19.72
2022-10-14T09:23:27.601Z,20.01
2022-10-14T09:26:13.242Z,20.27
2022-10-14T09:28:44.556Z,20.40
2022-10-14T09:31:14.363Z,20.38
2022-10-14T09:33:43.029Z,20.30
2022-10-14T09:36:20.830Z,19.92
2022-10-14T09:38:52.950Z,20.53
2022-10-14T09:41:26.363Z,20.83
2022-10-14T09:44:21.515Z,20.90
2022-10-14T09:46:56.380Z,20.67
2022-10-14T09:49:35.068Z,21.13
2022-10-14T09:52:02.790Z,21.19
2022-10-14T09:54:31.534Z,21.33
2022-10-14T09:57:02.344Z,21.12
2022-10-14T09:59:31.426Z,21.51
2022-10-14T10:02:01.347Z,21.51
2022-10-14T10:04:47.385Z,21.38
2022-10-14T10:07:35.093Z,21.59
2022-10-14T10:10:05.771Z,21.70
2022-10-14T10:12:35.903Z,21.07
2022-10-14T10:15:05.874Z,21.85
2022-10-14T10:17:38.257Z,21.86
2022-10-14T10:20:28.178Z,22.09
2022-10-14T10:22:59.006Z,22.08
2022-10-14T10:25:28.514Z,22.18
2022-10-14T10:27:58.874Z,22.37
2022-10-14T10:30:58.161Z,22.35
2022-10-14T10:33:36.694Z,22.47
2022-10-14T10:38:59.821Z,22.65
2022-10-14T10:41:48.585Z,22.78
2022-10-14T10:44:42.476Z,22.73
2022-10-14T10:47:27.762Z,22.86
2022-10-14T10:50:13.018Z,22.98
2022-10-14T10:53:00.176Z,22.97
2022-10-14T10:55:36.127Z,22.96
2022-10-14T10:58:41.200Z,23.02
2022-10-14T11:01:31.753Z,22.71
2022-10-14T11:04:09.398Z,23.10
2022-10-14T11:07:05.719Z,23.17
2022-10-14T11:10:14.959Z,23.06
2022-10-14T11:13:01.096Z,22.78
2022-10-14T11:15:59.403Z,22.27
2022-10-14T11:18:36.380Z,22.79
2022-10-14T11:21:07.974Z,22.46
2022-10-14T11:23:43.899Z,22.44
2022-10-14T11:26:42.364Z,22.36
2022-10-14T11:29:22.576Z,22.12
2022-10-14T11:32:06.510Z,21.89
2022-10-14T11:34:48.015Z,22.49
2022-10-14T11:37:45.066Z,22.12
2022-10-14T11:40:22.463Z,22.59
2022-10-14T11:42:56.085Z,22.30
2022-10-14T11:45:38.868Z,22.12
2022-10-14T11:48:23.946Z,22.23
2022-10-14T11:51:01.095Z,21.90
2022-10-14T11:53:40.234Z,21.68
2022-10-14T11:56:14.879Z,21.81
2022-10-14T11:58:45.527Z,21.97
2022-10-14T12:01:15.964Z,21.88
2022-10-14T12:04:11.485Z,21.89
2022-10-14T12:07:03.391Z,22.45
2022-10-14T12:09:39.564Z,22.58
2022-10-14T12:12:12.160Z,22.17
2022-10-14T12:14:44.809Z,22.22
2022-10-14T12:17:21.799Z,22.22
2022-10-14T12:19:49.924Z,22.13
2022-10-14T12:22:27.960Z,21.98
2022-10-14T12:24:57.717Z,21.85
2022-10-14T12:27:27.008Z,21.92
2022-10-14T12:29:58.426Z,21.82
2022-10-14T12:32:30.820Z,21.87
2022-10-14T12:35:01.924Z,21.73
2022-10-14T12:37:35.443Z,21.92
2022-10-14T12:40:24.283Z,21.98
2022-10-14T12:43:14.673Z,21.84
2022-10-14T12:45:56.819Z,21.56
2022-10-14T12:48:26.370Z,21.97
2022-10-14T12:51:16.330Z,22.05
2022-10-14T12:54:15.175Z,21.93
2022-10-14T12:57:15.478Z,21.96
2022-10-14T12:59:49.020Z,21.40
2022-10-14T13:02:15.635Z,22.07
2022-10-14T13:04:54.539Z,22.08
2022-10-14T13:07:46.563Z,22.01
2022-10-14T13:10:46.201Z,22.05
2022-10-14T13:13:51.169Z,22.10
2022-10-14T13:16:21.054Z,22.06
2022-10-14T13:18:52.762Z,22.05
2022-10-14T13:21:34.591Z,22.08
2022-10-14T13:24:05.820Z,22.10
2022-10-14T13:26:32.566Z,22.26
2022-10-14T13:29:13.710Z,22.29
2022-10-14T13:32:12.475Z,22.27
2022-10-14T13:35:07.500Z,22.34
2022-10-14T13:37:46.154Z,22.51
2022-10-14T13:40:29.009Z,22.39
2022-10-14T13:42:58.710Z,22.32
2022-10-14T13:45:42.668Z,21.42
2022-10-14T13:48:25.293Z,21.82
2022-10-14T13:51:06.362Z,20.68
2022-10-14T13:53:59.011Z,21.67
2022-10-14T13:56:31.559Z,22.20
2022-10-14T13:59:32.377Z,22.21
2022-10-14T14:02:15.526Z,22.05
2022-10-14T14:04:48.727Z,21.85
2022-10-14T14:07:59.554Z,21.83
2022-10-14T14:10:10.651Z,21.91
2022-10-14T14:12:43.014Z,21.84
2022-10-14T14:15:22.138Z,22.02
2022-10-14T14:17:49.169Z,22.01
2022-10-14T14:20:21.533Z,21.51
2022-10-14T14:22:48.529Z,22.04
2022-10-14T14:28:05.944Z,22.01
2022-10-14T14:30:38.965Z,22.25
2022-10-14T14:33:15.686Z,21.86
2022-10-14T14:35:52.527Z,22.22
2022-10-14T14:38:31.645Z,21.95
2022-10-14T14:41:19.562Z,21.83
2022-10-14T14:43:57.378Z,22.06
2022-10-14T14:46:38.385Z,21.77
2022-10-14T14:49:07.112Z,21.82
2022-10-14T14:51:36.456Z,22.07
2022-10-14T14:54:04.703Z,22.02
2022-10-14T14:56:52.723Z,21.79
2022-10-14T14:59:28.644Z,21.78
2022-10-14T15:04:28.234Z,21.66
2022-10-14T15:07:01.754Z,21.73
2022-10-14T15:09:47.737Z,21.72
2022-10-14T15:12:26.389Z,21.58
2022-10-14T15:14:56.751Z,21.81
2022-10-14T15:17:38.117Z,21.81
2022-10-14T15:20:05.320Z,21.82
2022-10-14T15:22:37.264Z,21.52
2022-10-14T15:25:05.490Z,21.78
2022-10-14T15:27:42.997Z,21.76
2022-10-14T15:30:35.902Z,21.71
2022-10-14T15:33:23.985Z,21.85
2022-10-14T15:35:59.276Z,21.84
2022-10-14T15:38:26.890Z,21.76
2022-10-14T15:40:54.186Z,21.57
2022-10-14T15:43:26.019Z,21.08
2022-10-14T15:46:13.647Z,20.68
2022-10-14T15:48:46.918Z,21.31
2022-10-14T15:51:16.806Z,21.73
2022-10-14T15:53:43.448Z,21.48
2022-10-14T15:56:10.467Z,21.65
2022-10-14T15:58:37.103Z,21.61
2022-10-14T16:01:06.564Z,21.19
2022-10-14T16:03:37.310Z,21.64
2022-10-14T16:06:05.588Z,21.55
2022-10-14T16:08:32.467Z,21.46
2022-10-14T16:10:59.160Z,21.42
2022-10-14T16:13:26.197Z,21.34
2022-10-14T16:15:57.944Z,21.35
2022-10-14T16:18:25.869Z,21.43
2022-10-14T16:20:52.963Z,21.66
2022-10-14T16:23:22.565Z,21.58
2022-10-14T16:25:50.317Z,21.50
2022-10-14T16:28:18.050Z,21.47
2022-10-14T16:30:48.724Z,21.32
2022-10-14T16:33:18.003Z,21.46
2022-10-14T16:35:49.236Z,21.55
2022-10-14T16:38:15.966Z,21.57
2022-10-14T16:40:42.593Z,21.16
2022-10-14T16:43:09.773Z,21.41
2022-10-14T16:45:37.922Z,21.40
2022-10-14T16:48:04.691Z,21.40
2022-10-14T16:50:31.619Z,21.38
2022-10-14T16:53:18.265Z,21.36
2022-10-14T16:55:45.960Z,21.15
2022-10-14T16:58:12.661Z,20.66
2022-10-14T17:03:14.297Z,20.91
2022-10-14T17:05:40.915Z,21.26
2022-10-14T17:08:07.746Z,21.23
2022-10-14T17:10:34.454Z,21.24
2022-10-14T17:13:02.151Z,21.19
2022-10-14T17:15:28.820Z,21.17
2022-10-14T17:17:55.453Z,21.05
2022-10-14T17:20:22.008Z,21.11
2022-10-14T17:22:49.876Z,21.05
2022-10-14T17:25:18.171Z,20.97
2022-10-14T17:27:44.779Z,20.96
2022-10-14T17:30:14.079Z,20.65
2022-10-14T17:32:40.686Z,20.57
2022-10-14T17:35:11.397Z,20.88
2022-10-14T17:37:55.899Z,20.89
2022-10-14T17:40:33.695Z,20.90
2022-10-14T17:43:00.928Z,20.73
2022-10-14T17:45:29.379Z,20.76
2022-10-14T17:47:56.871Z,20.67
2022-10-14T17:50:25.609Z,20.59
2022-10-14T17:52:52.464Z,20.72
2022-10-14T17:55:19.166Z,20.53
2022-10-14T17:57:46.268Z,20.61
2022-10-14T18:00:13.219Z,20.67
2022-10-14T18:02:39.979Z,20.58
2022-10-14T18:05:07.299Z,20.35
2022-10-14T18:07:37.580Z,19.94
2022-10-14T18:10:04.917Z,20.46
2022-10-14T18:12:33.065Z,20.48
2022-10-14T18:15:00.327Z,20.19
2022-10-14T18:17:30.182Z,20.44
2022-10-14T18:19:56.880Z,20.18
2022-10-14T18:22:23.460Z,19.90
2022-10-14T18:24:50.284Z,20.15
2022-10-14T18:27:17.189Z,20.05
2022-10-14T18:29:44.086Z,20.03
2022-10-14T18:32:10.713Z,20.15
2022-10-14T18:34:37.321Z,20.10
2022-10-14T18:37:03.957Z,20.00
2022-10-14T18:39:30.641Z,19.96
2022-10-14T18:41:57.344Z,19.98
2022-10-14T18:44:24.030Z,19.93
2022-10-14T18:46:51.058Z,19.86
2022-10-14T18:49:17.763Z,19.56
2022-10-14T18:51:44.867Z,19.79
2022-10-14T18:54:16.083Z,19.50
2022-10-14T18:56:44.467Z,19.71
2022-10-14T18:59:17.985Z,19.65
2022-10-14T19:01:46.258Z,19.73
2022-10-14T19:04:14.516Z,19.71
2022-10-14T19:06:41.753Z,19.71
2022-10-14T19:09:12.700Z,19.64
2022-10-14T19:11:40.352Z,19.69
2022-10-14T19:14:07.551Z,19.42
2022-10-14T19:16:36.753Z,19.76
2022-10-14T19:19:08.391Z,19.80
2022-10-14T19:21:35.146Z,19.79
2022-10-14T19:24:02.990Z,19.65
2022-10-14T19:26:32.671Z,19.56
2022-10-14T19:29:00.936Z,19.60
2022-10-14T19:31:30.508Z,19.77
2022-10-14T19:33:59.711Z,19.60
2022-10-14T19:36:27.020Z,19.73
2022-10-14T19:38:57.964Z,19.67
2022-10-14T19:41:26.256Z,19.58
2022-10-14T19:43:53.730Z,19.50
2022-10-14T19:46:27.514Z,19.10
2022-10-14T19:49:02.370Z,19.20
2022-10-14T19:51:29.612Z,19.24
2022-10-14T19:53:57.674Z,19.06
2022-10-14T19:56:26.407Z,19.18
2022-10-14T19:58:55.212Z,18.85
2022-10-14T20:01:24.742Z,18.95
2022-10-14T20:03:52.679Z,19.04
2022-10-14T20:06:20.487Z,18.94
2022-10-14T20:08:51.012Z,18.90
2022-10-14T20:11:22.571Z,18.62
2022-10-14T20:13:49.313Z,18.55
2022-10-14T20:16:16.951Z,18.80
2022-10-14T20:18:43.871Z,18.77
2022-10-14T20:21:12.860Z,18.29
2022-10-14T20:23:39.970Z,18.34
2022-10-14T20:26:11.788Z,18.35
2022-10-14T20:28:39.479Z,18.57
2022-10-14T20:31:08.475Z,18.21
2022-10-14T20:33:35.023Z,18.58
2022-10-14T20:36:04.420Z,18.32
2022-10-14T20:38:31.220Z,18.65
2022-10-14T20:41:17.431Z,18.64
2022-10-14T20:43:45.196Z,18.63
2022-10-14T20:46:12.162Z,18.54
2022-10-14T20:48:38.838Z,18.56
2022-10-14T20:51:06.811Z,18.45
2022-10-14T20:53:33.908Z,18.26
2022-10-14T20:56:06.276Z,18.33
2022-10-14T20:58:33.532Z,18.40
2022-10-14T21:01:07.741Z,18.28
2022-10-14T21:03:35.424Z,18.20
2022-10-14T21:06:08.525Z,17.34
2022-10-14T21:08:35.720Z,18.40
2022-10-14T21:11:09.150Z,18.35
2022-10-14T21:13:38.956Z,18.41
2022-10-14T21:16:20.935Z,18.36
2022-10-14T21:18:55.124Z,18.38
2022-10-14T21:21:26.277Z,18.34
2022-10-14T21:23:53.098Z,18.42
2022-10-14T21:26:19.958Z,18.34
2022-10-14T21:28:46.679Z,18.35
2022-10-14T21:31:18.680Z,18.17
2022-10-14T21:33:47.557Z,18.25
2022-10-14T21:36:15.845Z,18.19
2022-10-14T21:38:42.852Z,18.15
2022-10-14T21:41:09.795Z,18.12
2022-10-14T21:43:37.344Z,18.08
2022-10-14T21:46:09.141Z,17.97
2022-10-14T21:48:38.373Z,17.72
2022-10-14T21:51:07.955Z,17.86
2022-10-14T21:53:35.131Z,17.90
2022-10-14T21:56:02.336Z,17.86
2022-10-14T21:58:29.873Z,17.97
2022-10-14T22:01:22.995Z,17.39
2022-10-14T22:04:01.584Z,17.86
2022-10-14T22:06:28.966Z,17.65
2022-10-14T22:08:57.638Z,17.91
2022-10-14T22:11:27.532Z,17.75
2022-10-14T22:13:55.993Z,17.41
2022-10-14T22:16:23.261Z,17.59
2022-10-14T22:18:54.169Z,17.76
2022-10-14T22:21:23.707Z,17.76
2022-10-14T22:23:51.539Z,17.72
2022-10-14T22:26:20.660Z,17.63
2022-10-14T22:28:47.693Z,17.62
2022-10-14T22:31:21.017Z,17.60
2022-10-14T22:33:48.413Z,17.25
2022-10-14T22:36:22.580Z,17.56
2022-10-14T22:38:51.835Z,17.54
2022-10-14T22:41:18.614Z,17.44
2022-10-14T22:43:47.057Z,17.13
2022-10-14T22:46:14.803Z,17.33
2022-10-14T22:48:43.233Z,17.17
2022-10-14T22:51:12.551Z,17.37
2022-10-14T22:54:01.915Z,17.39
2022-10-14T22:56:30.583Z,17.53
2022-10-14T22:59:00.680Z,17.52
2022-10-14T23:01:28.310Z,17.68
2022-10-14T23:03:56.538Z,17.59
2022-10-14T23:06:23.492Z,17.52
2022-10-14T23:08:50.222Z,17.84
2022-10-14T23:11:19.136Z,17.70
2022-10-14T23:13:45.994Z,17.56
2022-10-14T23:16:15.629Z,17.73
2022-10-14T23:21:18.465Z,17.60
2022-10-14T23:23:46.408Z,17.58
2022-10-14T23:26:17.510Z,17.55
2022-10-14T23:28:48.799Z,17.40
2022-10-14T23:31:17.776Z,17.45
2022-10-14T23:33:44.506Z,17.00
2022-10-14T23:36:13.820Z,16.76
2022-10-14T23:38:41.041Z,17.11
2022-10-14T23:41:09.911Z,17.18
2022-10-14T23:43:37.345Z,17.03
2022-10-14T23:46:05.096Z,16.16
2022-10-14T23:48:32.074Z,17.08
2022-10-14T23:50:59.303Z,17.00
2022-10-14T23:53:26.654Z,17.06
2022-10-14T23:55:54.819Z,16.61
2022-10-14T23:58:22.432Z,17.06
